KPWK/PWK METAR and TAF weather

Enter ICAO airport designator
Station Type Date Time Source
KPWK METAR 2022/12/04 11:52 UTC NOAA

KPWK 041152Z AUTO 22005KT 10SM CLR M06/M13 A3026 RMK AO2 SLP256 T10611128 11056 21072 56018


Station Type Date Time Source
KPWK Decoded METAR 2022/12/04 11:52 UTC NOAA

CHICAGO EXECUTIVE AIRPORT, IL, United States (KPWK) 42-07N 087-54W 203M
Dec 04, 2022 - 06:52 AM EST / 2022.12.04 1152 UTC
Wind: from the SW (220 degrees) at 6 MPH (5 KT):0
Visibility: 10 mile(s):0
Sky conditions: clear
Temperature: 21.0 F (-6.1 C)
Windchill: 14 F (-10 C):1
Dew Point: 9.0 F (-12.8 C)
Relative Humidity: 59%
Pressure (altimeter): 30.26 in. Hg (1024 hPa)
Pressure tendency: 0.05 inches (1.8 hPa) lower than three hours ago
ob: KPWK 041152Z AUTO 22005KT 10SM CLR M06/M13 A3026 RMK AO2 SLP256 T10611128 11056 21072 56018
cycle: 12

Station Type Date Time Source
KPWK TAF UTC NOAA

Error!

Example: see airport list